sensor_id;sensor_type;location;lat;lon;timestamp;temperature;humidity
59025;DHT22;44806;48.008;13.666;2022-07-29T00:01:04;21.70;94.50
59025;DHT22;44806;48.008;13.666;2022-07-29T00:03:31;21.70;94.80
59025;DHT22;44806;48.008;13.666;2022-07-29T00:05:59;21.60;95.30
59025;DHT22;44806;48.008;13.666;2022-07-29T00:08:27;21.40;96.30
59025;DHT22;44806;48.008;13.666;2022-07-29T00:10:54;21.40;96.40
59025;DHT22;44806;48.008;13.666;2022-07-29T00:13:21;21.30;96.70
59025;DHT22;44806;48.008;13.666;2022-07-29T00:15:48;21.20;97.00
59025;DHT22;44806;48.008;13.666;2022-07-29T00:18:16;21.20;96.90
59025;DHT22;44806;48.008;13.666;2022-07-29T00:20:43;21.30;96.90
59025;DHT22;44806;48.008;13.666;2022-07-29T00:23:11;21.40;96.60
59025;DHT22;44806;48.008;13.666;2022-07-29T00:25:40;21.40;96.70
59025;DHT22;44806;48.008;13.666;2022-07-29T00:28:09;21.50;96.90
59025;DHT22;44806;48.008;13.666;2022-07-29T00:30:36;21.40;96.60
59025;DHT22;44806;48.008;13.666;2022-07-29T00:33:03;21.40;96.80
59025;DHT22;44806;48.008;13.666;2022-07-29T00:35:30;21.40;96.10
59025;DHT22;44806;48.008;13.666;2022-07-29T00:38:16;21.40;96.10
59025;DHT22;44806;48.008;13.666;2022-07-29T00:40:44;21.50;95.50
59025;DHT22;44806;48.008;13.666;2022-07-29T00:43:12;21.60;96.10
59025;DHT22;44806;48.008;13.666;2022-07-29T00:45:39;21.60;96.00
59025;DHT22;44806;48.008;13.666;2022-07-29T00:48:07;21.50;96.00
59025;DHT22;44806;48.008;13.666;2022-07-29T00:50:35;21.50;96.30
59025;DHT22;44806;48.008;13.666;2022-07-29T00:53:05;21.50;96.70
59025;DHT22;44806;48.008;13.666;2022-07-29T00:55:35;21.50;96.70
59025;DHT22;44806;48.008;13.666;2022-07-29T00:58:02;21.50;97.30
59025;DHT22;44806;48.008;13.666;2022-07-29T01:00:30;21.50;96.30
59025;DHT22;44806;48.008;13.666;2022-07-29T01:03:00;21.50;97.20
59025;DHT22;44806;48.008;13.666;2022-07-29T01:05:28;21.40;96.90
59025;DHT22;44806;48.008;13.666;2022-07-29T01:07:57;21.50;97.20
59025;DHT22;44806;48.008;13.666;2022-07-29T01:10:24;21.50;97.10
59025;DHT22;44806;48.008;13.666;2022-07-29T01:12:56;21.50;96.60
59025;DHT22;44806;48.008;13.666;2022-07-29T01:15:24;21.50;96.60
59025;DHT22;44806;48.008;13.666;2022-07-29T01:17:57;21.50;96.70
59025;DHT22;44806;48.008;13.666;2022-07-29T01:20:33;21.50;96.60
59025;DHT22;44806;48.008;13.666;2022-07-29T01:23:45;21.50;96.70
59025;DHT22;44806;48.008;13.666;2022-07-29T01:26:39;21.50;96.50
59025;DHT22;44806;48.008;13.666;2022-07-29T01:29:12;21.50;97.10
59025;DHT22;44806;48.008;13.666;2022-07-29T01:31:47;21.50;96.50
59025;DHT22;44806;48.008;13.666;2022-07-29T01:34:19;21.50;97.20
59025;DHT22;44806;48.008;13.666;2022-07-29T01:36:51;21.40;97.10
59025;DHT22;44806;48.008;13.666;2022-07-29T01:39:23;21.50;96.90
59025;DHT22;44806;48.008;13.666;2022-07-29T01:41:57;21.50;97.00
59025;DHT22;44806;48.008;13.666;2022-07-29T01:44:34;21.50;96.80
59025;DHT22;44806;48.008;13.666;2022-07-29T01:47:10;21.50;97.30
59025;DHT22;44806;48.008;13.666;2022-07-29T01:49:47;21.50;97.70
59025;DHT22;44806;48.008;13.666;2022-07-29T01:52:20;21.50;98.10
59025;DHT22;44806;48.008;13.666;2022-07-29T01:54:53;21.50;97.70
59025;DHT22;44806;48.008;13.666;2022-07-29T01:57:26;21.50;98.20
59025;DHT22;44806;48.008;13.666;2022-07-29T01:59:58;21.50;98.20
59025;DHT22;44806;48.008;13.666;2022-07-29T02:02:27;21.50;98.30
59025;DHT22;44806;48.008;13.666;2022-07-29T02:04:56;21.50;98.40
59025;DHT22;44806;48.008;13.666;2022-07-29T02:07:26;21.50;97.90
59025;DHT22;44806;48.008;13.666;2022-07-29T02:09:56;21.50;98.20
59025;DHT22;44806;48.008;13.666;2022-07-29T02:12:28;21.50;97.90
59025;DHT22;44806;48.008;13.666;2022-07-29T02:15:00;21.50;98.60
59025;DHT22;44806;48.008;13.666;2022-07-29T02:17:31;21.40;98.50
59025;DHT22;44806;48.008;13.666;2022-07-29T02:20:02;21.40;98.80
59025;DHT22;44806;48.008;13.666;2022-07-29T02:22:36;21.40;98.50
59025;DHT22;44806;48.008;13.666;2022-07-29T02:25:05;21.40;98.10
59025;DHT22;44806;48.008;13.666;2022-07-29T02:27:34;21.40;98.20
59025;DHT22;44806;48.008;13.666;2022-07-29T02:30:04;21.40;98.00
59025;DHT22;44806;48.008;13.666;2022-07-29T02:32:34;21.30;98.40
59025;DHT22;44806;48.008;13.666;2022-07-29T02:35:02;21.20;98.90
59025;DHT22;44806;48.008;13.666;2022-07-29T02:37:30;21.20;98.90
59025;DHT22;44806;48.008;13.666;2022-07-29T02:39:59;21.20;99.10
59025;DHT22;44806;48.008;13.666;2022-07-29T02:42:27;21.20;99.70
59025;DHT22;44806;48.008;13.666;2022-07-29T02:44:55;21.20;99.30
59025;DHT22;44806;48.008;13.666;2022-07-29T02:47:27;21.20;98.90
59025;DHT22;44806;48.008;13.666;2022-07-29T02:50:02;21.20;99.40
59025;DHT22;44806;48.008;13.666;2022-07-29T02:52:34;21.20;99.90
59025;DHT22;44806;48.008;13.666;2022-07-29T02:55:04;21.20;99.90
59025;DHT22;44806;48.008;13.666;2022-07-29T02:57:36;21.10;99.90
59025;DHT22;44806;48.008;13.666;2022-07-29T03:00:08;21.20;99.90
59025;DHT22;44806;48.008;13.666;2022-07-29T03:02:40;21.10;99.90
59025;DHT22;44806;48.008;13.666;2022-07-29T03:05:10;21.10;99.90
59025;DHT22;44806;48.008;13.666;2022-07-29T03:07:39;21.10;99.90
59025;DHT22;44806;48.008;13.666;2022-07-29T03:10:08;21.10;99.90
59025;DHT22;44806;48.008;13.666;2022-07-29T03:12:36;21.00;99.90
59025;DHT22;44806;48.008;13.666;2022-07-29T03:15:04;21.00;99.90
59025;DHT22;44806;48.008;13.666;2022-07-29T03:17:32;21.00;99.90
59025;DHT22;44806;48.008;13.666;2022-07-29T03:20:01;21.00;99.90
59025;DHT22;44806;48.008;13.666;2022-07-29T03:22:28;20.90;99.90
59025;DHT22;44806;48.008;13.666;2022-07-29T03:24:55;20.90;99.90
59025;DHT22;44806;48.008;13.666;2022-07-29T03:27:23;20.90;99.90
59025;DHT22;44806;48.008;13.666;2022-07-29T03:29:50;20.80;99.90
59025;DHT22;44806;48.008;13.666;2022-07-29T03:32:17;20.90;99.90
59025;DHT22;44806;48.008;13.666;2022-07-29T03:34:44;20.80;99.90
59025;DHT22;44806;48.008;13.666;2022-07-29T03:37:12;20.80;99.90
59025;DHT22;44806;48.008;13.666;2022-07-29T03:39:41;20.90;99.90
59025;DHT22;44806;48.008;13.666;2022-07-29T03:42:14;20.80;99.90
59025;DHT22;44806;48.008;13.666;2022-07-29T03:44:44;20.80;99.90
59025;DHT22;44806;48.008;13.666;2022-07-29T03:47:13;20.90;99.90
59025;DHT22;44806;48.008;13.666;2022-07-29T03:49:42;20.90;99.90
59025;DHT22;44806;48.008;13.666;2022-07-29T03:52:12;20.90;99.90
59025;DHT22;44806;48.008;13.666;2022-07-29T03:54:40;20.90;99.90
59025;DHT22;44806;48.008;13.666;2022-07-29T03:57:07;20.80;99.90
59025;DHT22;44806;48.008;13.666;2022-07-29T03:59:38;20.80;99.90
59025;DHT22;44806;48.008;13.666;2022-07-29T04:02:08;20.80;99.90
59025;DHT22;44806;48.008;13.666;2022-07-29T04:04:36;20.80;99.90
59025;DHT22;44806;48.008;13.666;2022-07-29T04:07:03;20.70;99.90
59025;DHT22;44806;48.008;13.666;2022-07-29T04:09:33;20.80;99.90
59025;DHT22;44806;48.008;13.666;2022-07-29T04:12:00;20.70;99.90
59025;DHT22;44806;48.008;13.666;2022-07-29T04:14:28;20.70;99.90
59025;DHT22;44806;48.008;13.666;2022-07-29T04:16:58;20.60;99.90
59025;DHT22;44806;48.008;13.666;2022-07-29T04:19:25;20.60;99.90
59025;DHT22;44806;48.008;13.666;2022-07-29T04:21:52;20.60;99.90
59025;DHT22;44806;48.008;13.666;2022-07-29T04:24:20;20.60;99.90
59025;DHT22;44806;48.008;13.666;2022-07-29T04:26:49;20.60;99.90
59025;DHT22;44806;48.008;13.666;2022-07-29T04:29:16;20.60;99.90
59025;DHT22;44806;48.008;13.666;2022-07-29T04:31:43;20.40;99.90
59025;DHT22;44806;48.008;13.666;2022-07-29T04:34:11;20.40;99.90
59025;DHT22;44806;48.008;13.666;2022-07-29T04:36:38;20.40;99.90
59025;DHT22;44806;48.008;13.666;2022-07-29T04:39:06;20.50;99.90
59025;DHT22;44806;48.008;13.666;2022-07-29T04:41:34;20.50;99.90
59025;DHT22;44806;48.008;13.666;2022-07-29T04:44:04;20.60;99.90
59025;DHT22;44806;48.008;13.666;2022-07-29T04:46:36;20.60;99.90
59025;DHT22;44806;48.008;13.666;2022-07-29T04:49:03;20.70;99.90
59025;DHT22;44806;48.008;13.666;2022-07-29T04:51:31;20.70;99.90
59025;DHT22;44806;48.008;13.666;2022-07-29T04:53:58;20.70;99.90
59025;DHT22;44806;48.008;13.666;2022-07-29T04:56:25;20.80;99.90
59025;DHT22;44806;48.008;13.666;2022-07-29T04:58:52;20.80;99.90
59025;DHT22;44806;48.008;13.666;2022-07-29T05:01:21;20.90;99.90
59025;DHT22;44806;48.008;13.666;2022-07-29T05:03:48;20.90;99.90
59025;DHT22;44806;48.008;13.666;2022-07-29T05:06:15;20.90;99.90
59025;DHT22;44806;48.008;13.666;2022-07-29T05:08:42;20.90;99.90
59025;DHT22;44806;48.008;13.666;2022-07-29T05:11:13;20.80;99.90
59025;DHT22;44806;48.008;13.666;2022-07-29T05:13:40;20.80;99.90
59025;DHT22;44806;48.008;13.666;2022-07-29T05:16:08;20.80;99.90
59025;DHT22;44806;48.008;13.666;2022-07-29T05:18:36;20.70;99.90
59025;DHT22;44806;48.008;13.666;2022-07-29T05:21:03;20.60;99.90
59025;DHT22;44806;48.008;13.666;2022-07-29T05:23:32;20.70;99.90
59025;DHT22;44806;48.008;13.666;2022-07-29T05:25:59;20.90;99.90
59025;DHT22;44806;48.008;13.666;2022-07-29T05:28:26;20.90;99.90
59025;DHT22;44806;48.008;13.666;2022-07-29T05:30:54;20.90;99.90
59025;DHT22;44806;48.008;13.666;2022-07-29T05:33:21;21.00;99.90
59025;DHT22;44806;48.008;13.666;2022-07-29T05:35:50;21.00;99.90
59025;DHT22;44806;48.008;13.666;2022-07-29T05:38:20;21.00;99.90
59025;DHT22;44806;48.008;13.666;2022-07-29T05:40:47;21.00;99.90
59025;DHT22;44806;48.008;13.666;2022-07-29T05:43:15;21.00;99.90
59025;DHT22;44806;48.008;13.666;2022-07-29T05:45:42;20.90;99.90
59025;DHT22;44806;48.008;13.666;2022-07-29T05:48:09;20.90;99.90
59025;DHT22;44806;48.008;13.666;2022-07-29T05:50:37;20.90;99.90
59025;DHT22;44806;48.008;13.666;2022-07-29T05:53:06;21.00;99.90
59025;DHT22;44806;48.008;13.666;2022-07-29T05:55:33;21.10;99.90
59025;DHT22;44806;48.008;13.666;2022-07-29T05:58:00;21.30;99.90
59025;DHT22;44806;48.008;13.666;2022-07-29T06:00:27;21.30;99.90
59025;DHT22;44806;48.008;13.666;2022-07-29T06:02:55;21.40;99.90
59025;DHT22;44806;48.008;13.666;2022-07-29T06:05:23;21.50;99.90
59025;DHT22;44806;48.008;13.666;2022-07-29T06:07:50;21.60;99.90
59025;DHT22;44806;48.008;13.666;2022-07-29T06:10:18;21.70;99.90
59025;DHT22;44806;48.008;13.666;2022-07-29T06:12:45;21.70;99.90
59025;DHT22;44806;48.008;13.666;2022-07-29T06:15:13;21.80;99.90
59025;DHT22;44806;48.008;13.666;2022-07-29T06:17:41;21.90;99.90
59025;DHT22;44806;48.008;13.666;2022-07-29T06:20:09;21.90;99.90
59025;DHT22;44806;48.008;13.666;2022-07-29T06:22:37;22.00;99.90
59025;DHT22;44806;48.008;13.666;2022-07-29T06:25:05;22.00;99.90
59025;DHT22;44806;48.008;13.666;2022-07-29T06:27:33;22.00;99.90
59025;DHT22;44806;48.008;13.666;2022-07-29T06:30:00;22.10;99.90
59025;DHT22;44806;48.008;13.666;2022-07-29T06:32:28;22.10;99.90
59025;DHT22;44806;48.008;13.666;2022-07-29T06:34:56;22.10;99.90
59025;DHT22;44806;48.008;13.666;2022-07-29T06:37:23;22.20;99.90
59025;DHT22;44806;48.008;13.666;2022-07-29T06:39:50;22.10;99.90
59025;DHT22;44806;48.008;13.666;2022-07-29T06:42:43;22.10;99.90
59025;DHT22;44806;48.008;13.666;2022-07-29T06:45:10;22.20;99.90
59025;DHT22;44806;48.008;13.666;2022-07-29T06:47:41;22.30;99.90
59025;DHT22;44806;48.008;13.666;2022-07-29T06:50:09;22.30;99.90
59025;DHT22;44806;48.008;13.666;2022-07-29T06:52:38;22.30;99.90
59025;DHT22;44806;48.008;13.666;2022-07-29T06:55:06;22.20;99.90
59025;DHT22;44806;48.008;13.666;2022-07-29T06:57:34;22.10;99.90
59025;DHT22;44806;48.008;13.666;2022-07-29T07:00:03;22.10;99.90
59025;DHT22;44806;48.008;13.666;2022-07-29T07:02:31;22.10;99.90
59025;DHT22;44806;48.008;13.666;2022-07-29T07:05:03;22.10;99.90
59025;DHT22;44806;48.008;13.666;2022-07-29T07:07:31;22.10;99.90
59025;DHT22;44806;48.008;13.666;2022-07-29T07:09:58;22.10;99.90
59025;DHT22;44806;48.008;13.666;2022-07-29T07:12:25;22.10;99.90
59025;DHT22;44806;48.008;13.666;2022-07-29T07:14:52;22.10;99.90
59025;DHT22;44806;48.008;13.666;2022-07-29T07:17:22;22.00;99.90
59025;DHT22;44806;48.008;13.666;2022-07-29T07:19:49;22.00;99.90
59025;DHT22;44806;48.008;13.666;2022-07-29T07:22:16;22.00;99.90
59025;DHT22;44806;48.008;13.666;2022-07-29T07:24:49;22.00;99.90
59025;DHT22;44806;48.008;13.666;2022-07-29T07:27:16;22.10;99.90
59025;DHT22;44806;48.008;13.666;2022-07-29T07:29:44;22.10;99.90
59025;DHT22;44806;48.008;13.666;2022-07-29T07:32:11;22.20;99.90
59025;DHT22;44806;48.008;13.666;2022-07-29T07:34:40;22.10;99.90
59025;DHT22;44806;48.008;13.666;2022-07-29T07:37:07;22.10;99.90
59025;DHT22;44806;48.008;13.666;2022-07-29T07:39:34;22.10;99.90
59025;DHT22;44806;48.008;13.666;2022-07-29T07:42:01;22.20;99.90
59025;DHT22;44806;48.008;13.666;2022-07-29T07:44:29;22.20;99.90
59025;DHT22;44806;48.008;13.666;2022-07-29T07:46:56;22.30;99.90
59025;DHT22;44806;48.008;13.666;2022-07-29T07:49:23;22.40;99.90
59025;DHT22;44806;48.008;13.666;2022-07-29T07:51:51;22.50;99.90
59025;DHT22;44806;48.008;13.666;2022-07-29T07:54:19;22.50;99.90
59025;DHT22;44806;48.008;13.666;2022-07-29T07:56:46;22.60;99.90
59025;DHT22;44806;48.008;13.666;2022-07-29T07:59:14;22.60;99.90
59025;DHT22;44806;48.008;13.666;2022-07-29T08:01:41;22.70;99.90
59025;DHT22;44806;48.008;13.666;2022-07-29T08:04:09;22.80;99.90
59025;DHT22;44806;48.008;13.666;2022-07-29T08:06:36;22.80;99.90
59025;DHT22;44806;48.008;13.666;2022-07-29T08:09:05;22.90;99.90
59025;DHT22;44806;48.008;13.666;2022-07-29T08:11:32;22.90;99.90
59025;DHT22;44806;48.008;13.666;2022-07-29T08:14:02;23.00;99.90
59025;DHT22;44806;48.008;13.666;2022-07-29T08:16:29;23.00;99.90
59025;DHT22;44806;48.008;13.666;2022-07-29T08:18:57;23.10;99.90
59025;DHT22;44806;48.008;13.666;2022-07-29T08:21:24;23.20;99.90
59025;DHT22;44806;48.008;13.666;2022-07-29T08:23:51;23.30;99.90
59025;DHT22;44806;48.008;13.666;2022-07-29T08:26:40;23.40;98.00
59025;DHT22;44806;48.008;13.666;2022-07-29T08:29:08;23.50;99.40
59025;DHT22;44806;48.008;13.666;2022-07-29T08:31:35;23.50;98.20
59025;DHT22;44806;48.008;13.666;2022-07-29T08:34:02;23.50;97.50
59025;DHT22;44806;48.008;13.666;2022-07-29T08:36:30;23.50;97.30
59025;DHT22;44806;48.008;13.666;2022-07-29T08:38:57;23.70;97.20
59025;DHT22;44806;48.008;13.666;2022-07-29T08:41:24;23.70;97.30
59025;DHT22;44806;48.008;13.666;2022-07-29T08:43:53;23.80;97.70
59025;DHT22;44806;48.008;13.666;2022-07-29T08:46:20;23.90;96.30
59025;DHT22;44806;48.008;13.666;2022-07-29T08:48:48;24.10;96.10
59025;DHT22;44806;48.008;13.666;2022-07-29T08:51:19;24.00;97.00
59025;DHT22;44806;48.008;13.666;2022-07-29T08:53:49;24.10;96.10
59025;DHT22;44806;48.008;13.666;2022-07-29T08:56:17;24.10;96.40
59025;DHT22;44806;48.008;13.666;2022-07-29T08:58:46;24.20;98.00
59025;DHT22;44806;48.008;13.666;2022-07-29T09:01:17;24.30;96.20
59025;DHT22;44806;48.008;13.666;2022-07-29T09:03:46;24.40;96.10
59025;DHT22;44806;48.008;13.666;2022-07-29T09:06:14;24.40;96.30
59025;DHT22;44806;48.008;13.666;2022-07-29T09:08:42;24.60;95.70
59025;DHT22;44806;48.008;13.666;2022-07-29T09:11:09;24.80;95.60
59025;DHT22;44806;48.008;13.666;2022-07-29T09:13:37;25.00;95.70
59025;DHT22;44806;48.008;13.666;2022-07-29T09:16:04;25.30;94.80
59025;DHT22;44806;48.008;13.666;2022-07-29T09:18:36;25.30;94.40
59025;DHT22;44806;48.008;13.666;2022-07-29T09:21:04;25.30;93.20
59025;DHT22;44806;48.008;13.666;2022-07-29T09:24:03;25.50;93.20
59025;DHT22;44806;48.008;13.666;2022-07-29T09:26:32;25.80;91.10
59025;DHT22;44806;48.008;13.666;2022-07-29T09:29:08;26.00;91.20
59025;DHT22;44806;48.008;13.666;2022-07-29T09:31:38;26.20;90.80
59025;DHT22;44806;48.008;13.666;2022-07-29T09:34:10;26.40;87.70
59025;DHT22;44806;48.008;13.666;2022-07-29T09:36:40;26.50;88.00
59025;DHT22;44806;48.008;13.666;2022-07-29T09:39:08;26.70;85.60
59025;DHT22;44806;48.008;13.666;2022-07-29T09:41:49;26.70;86.90
59025;DHT22;44806;48.008;13.666;2022-07-29T09:44:18;27.00;83.90
59025;DHT22;44806;48.008;13.666;2022-07-29T09:46:56;27.10;86.60
59025;DHT22;44806;48.008;13.666;2022-07-29T09:49:25;27.30;84.00
59025;DHT22;44806;48.008;13.666;2022-07-29T09:52:06;27.40;82.90
59025;DHT22;44806;48.008;13.666;2022-07-29T09:54:33;27.50;81.40
59025;DHT22;44806;48.008;13.666;2022-07-29T09:57:05;27.60;80.30
59025;DHT22;44806;48.008;13.666;2022-07-29T09:59:32;27.80;76.80
59025;DHT22;44806;48.008;13.666;2022-07-29T10:02:00;27.90;76.20
59025;DHT22;44806;48.008;13.666;2022-07-29T10:04:39;28.00;77.70
59025;DHT22;44806;48.008;13.666;2022-07-29T10:07:06;28.00;77.70
59025;DHT22;44806;48.008;13.666;2022-07-29T10:09:35;28.10;78.40
59025;DHT22;44806;48.008;13.666;2022-07-29T10:12:09;28.30;77.30
59025;DHT22;44806;48.008;13.666;2022-07-29T10:14:39;28.50;78.60
59025;DHT22;44806;48.008;13.666;2022-07-29T10:17:08;28.40;75.30
59025;DHT22;44806;48.008;13.666;2022-07-29T10:19:38;28.50;77.90
59025;DHT22;44806;48.008;13.666;2022-07-29T10:22:06;28.40;73.50
59025;DHT22;44806;48.008;13.666;2022-07-29T10:24:34;28.70;76.60
59025;DHT22;44806;48.008;13.666;2022-07-29T10:27:07;28.80;73.10
59025;DHT22;44806;48.008;13.666;2022-07-29T10:29:35;28.80;73.90
59025;DHT22;44806;48.008;13.666;2022-07-29T10:32:13;29.00;75.30
59025;DHT22;44806;48.008;13.666;2022-07-29T10:38:04;29.40;72.30
59025;DHT22;44806;48.008;13.666;2022-07-29T10:40:41;29.50;71.80
59025;DHT22;44806;48.008;13.666;2022-07-29T10:43:32;29.70;72.00
59025;DHT22;44806;48.008;13.666;2022-07-29T10:46:02;29.80;70.70
59025;DHT22;44806;48.008;13.666;2022-07-29T10:48:29;29.90;70.20
59025;DHT22;44806;48.008;13.666;2022-07-29T10:50:59;30.00;69.10
59025;DHT22;44806;48.008;13.666;2022-07-29T10:53:53;30.10;66.90
59025;DHT22;44806;48.008;13.666;2022-07-29T10:56:25;30.10;70.90
59025;DHT22;44806;48.008;13.666;2022-07-29T10:59:25;30.30;68.50
59025;DHT22;44806;48.008;13.666;2022-07-29T11:01:54;30.50;67.60
59025;DHT22;44806;48.008;13.666;2022-07-29T11:04:59;30.50;66.00
59025;DHT22;44806;48.008;13.666;2022-07-29T11:07:28;30.60;69.20
59025;DHT22;44806;48.008;13.666;2022-07-29T11:10:23;30.60;66.30
59025;DHT22;44806;48.008;13.666;2022-07-29T11:12:51;30.70;68.00
59025;DHT22;44806;48.008;13.666;2022-07-29T11:15:20;30.90;67.70
59025;DHT22;44806;48.008;13.666;2022-07-29T11:18:08;31.00;66.30
59025;DHT22;44806;48.008;13.666;2022-07-29T11:20:39;31.10;68.80
59025;DHT22;44806;48.008;13.666;2022-07-29T11:23:26;31.10;68.30
59025;DHT22;44806;48.008;13.666;2022-07-29T11:26:18;31.30;68.30
59025;DHT22;44806;48.008;13.666;2022-07-29T11:28:54;31.40;64.20
59025;DHT22;44806;48.008;13.666;2022-07-29T11:31:34;31.50;66.40
59025;DHT22;44806;48.008;13.666;2022-07-29T11:34:24;31.60;68.60
59025;DHT22;44806;48.008;13.666;2022-07-29T11:40:16;31.80;64.40
59025;DHT22;44806;48.008;13.666;2022-07-29T11:42:46;31.90;61.40
59025;DHT22;44806;48.008;13.666;2022-07-29T11:45:18;31.80;61.40
59025;DHT22;44806;48.008;13.666;2022-07-29T11:47:51;31.70;62.20
59025;DHT22;44806;48.008;13.666;2022-07-29T11:50:28;31.50;62.60
59025;DHT22;44806;48.008;13.666;2022-07-29T11:52:56;31.50;60.00
59025;DHT22;44806;48.008;13.666;2022-07-29T11:55:27;31.80;61.00
59025;DHT22;44806;48.008;13.666;2022-07-29T11:57:58;32.00;61.30
59025;DHT22;44806;48.008;13.666;2022-07-29T12:00:30;32.20;59.10
59025;DHT22;44806;48.008;13.666;2022-07-29T12:02:59;32.40;58.80
59025;DHT22;44806;48.008;13.666;2022-07-29T12:05:38;32.60;59.50
59025;DHT22;44806;48.008;13.666;2022-07-29T12:08:11;32.50;59.40
59025;DHT22;44806;48.008;13.666;2022-07-29T12:10:41;32.30;55.30
59025;DHT22;44806;48.008;13.666;2022-07-29T12:13:09;32.10;59.20
59025;DHT22;44806;48.008;13.666;2022-07-29T12:15:36;32.20;58.00
59025;DHT22;44806;48.008;13.666;2022-07-29T12:18:14;32.10;56.30
59025;DHT22;44806;48.008;13.666;2022-07-29T12:20:42;32.10;56.20
59025;DHT22;44806;48.008;13.666;2022-07-29T12:23:10;32.10;57.70
59025;DHT22;44806;48.008;13.666;2022-07-29T12:25:41;32.40;60.30
59025;DHT22;44806;48.008;13.666;2022-07-29T12:28:09;32.30;55.60
59025;DHT22;44806;48.008;13.666;2022-07-29T12:30:43;32.40;56.10
59025;DHT22;44806;48.008;13.666;2022-07-29T12:33:16;32.40;55.50
59025;DHT22;44806;48.008;13.666;2022-07-29T12:35:46;32.50;54.40
59025;DHT22;44806;48.008;13.666;2022-07-29T12:38:14;32.40;55.00
59025;DHT22;44806;48.008;13.666;2022-07-29T12:40:45;32.40;57.50
59025;DHT22;44806;48.008;13.666;2022-07-29T12:43:14;32.60;54.40
59025;DHT22;44806;48.008;13.666;2022-07-29T12:45:43;32.40;55.60
59025;DHT22;44806;48.008;13.666;2022-07-29T12:48:10;32.50;57.70
59025;DHT22;44806;48.008;13.666;2022-07-29T12:50:53;32.50;55.70
59025;DHT22;44806;48.008;13.666;2022-07-29T12:53:21;32.70;54.60
59025;DHT22;44806;48.008;13.666;2022-07-29T12:55:51;32.90;54.70
59025;DHT22;44806;48.008;13.666;2022-07-29T12:58:29;33.00;54.20
59025;DHT22;44806;48.008;13.666;2022-07-29T13:01:01;33.00;54.00
59025;DHT22;44806;48.008;13.666;2022-07-29T13:03:29;33.00;53.30
59025;DHT22;44806;48.008;13.666;2022-07-29T13:05:56;33.00;54.40
59025;DHT22;44806;48.008;13.666;2022-07-29T13:08:23;33.20;54.00
59025;DHT22;44806;48.008;13.666;2022-07-29T13:10:52;33.20;54.20
59025;DHT22;44806;48.008;13.666;2022-07-29T13:13:19;33.30;55.00
59025;DHT22;44806;48.008;13.666;2022-07-29T13:15:46;33.60;53.70
59025;DHT22;44806;48.008;13.666;2022-07-29T13:18:35;33.70;56.00
59025;DHT22;44806;48.008;13.666;2022-07-29T13:21:11;33.30;53.90
59025;DHT22;44806;48.008;13.666;2022-07-29T13:23:38;32.80;54.60
59025;DHT22;44806;48.008;13.666;2022-07-29T13:26:08;33.20;54.80
59025;DHT22;44806;48.008;13.666;2022-07-29T13:28:36;33.10;51.20
59025;DHT22;44806;48.008;13.666;2022-07-29T13:31:05;32.30;53.10
59025;DHT22;44806;48.008;13.666;2022-07-29T13:33:32;32.60;57.80
59025;DHT22;44806;48.008;13.666;2022-07-29T13:35:59;33.10;58.00
59025;DHT22;44806;48.008;13.666;2022-07-29T13:38:26;33.30;52.70
59025;DHT22;44806;48.008;13.666;2022-07-29T13:40:53;32.90;52.40
59025;DHT22;44806;48.008;13.666;2022-07-29T13:43:22;33.10;55.10
59025;DHT22;44806;48.008;13.666;2022-07-29T13:45:49;33.50;55.40
59025;DHT22;44806;48.008;13.666;2022-07-29T13:48:16;33.40;50.70
59025;DHT22;44806;48.008;13.666;2022-07-29T13:50:43;33.50;55.40
59025;DHT22;44806;48.008;13.666;2022-07-29T13:53:11;33.70;51.20
59025;DHT22;44806;48.008;13.666;2022-07-29T13:55:38;33.30;54.00
59025;DHT22;44806;48.008;13.666;2022-07-29T13:58:06;33.30;52.70
59025;DHT22;44806;48.008;13.666;2022-07-29T14:00:34;32.80;49.70
59025;DHT22;44806;48.008;13.666;2022-07-29T14:03:01;33.00;53.70
59025;DHT22;44806;48.008;13.666;2022-07-29T14:05:28;32.40;53.80
59025;DHT22;44806;48.008;13.666;2022-07-29T14:07:56;32.10;59.10
59025;DHT22;44806;48.008;13.666;2022-07-29T14:10:23;32.50;54.40
59025;DHT22;44806;48.008;13.666;2022-07-29T14:12:50;32.50;53.20
59025;DHT22;44806;48.008;13.666;2022-07-29T14:15:17;32.80;53.80
59025;DHT22;44806;48.008;13.666;2022-07-29T14:17:45;32.90;51.80
59025;DHT22;44806;48.008;13.666;2022-07-29T14:20:13;33.00;52.80
59025;DHT22;44806;48.008;13.666;2022-07-29T14:22:41;33.10;51.00
59025;DHT22;44806;48.008;13.666;2022-07-29T14:25:08;33.60;51.80
59025;DHT22;44806;48.008;13.666;2022-07-29T14:27:35;33.80;52.80
59025;DHT22;44806;48.008;13.666;2022-07-29T14:30:03;33.90;52.10
59025;DHT22;44806;48.008;13.666;2022-07-29T14:32:30;34.40;51.90
59025;DHT22;44806;48.008;13.666;2022-07-29T14:34:59;34.50;48.50
59025;DHT22;44806;48.008;13.666;2022-07-29T14:37:26;34.50;52.00
59025;DHT22;44806;48.008;13.666;2022-07-29T14:39:53;34.40;50.60
59025;DHT22;44806;48.008;13.666;2022-07-29T14:42:25;34.80;51.50
59025;DHT22;44806;48.008;13.666;2022-07-29T14:44:52;35.00;51.30
59025;DHT22;44806;48.008;13.666;2022-07-29T14:47:19;34.90;49.90
59025;DHT22;44806;48.008;13.666;2022-07-29T14:49:47;34.90;49.10
59025;DHT22;44806;48.008;13.666;2022-07-29T14:52:16;34.30;50.60
59025;DHT22;44806;48.008;13.666;2022-07-29T14:54:43;34.00;52.10
59025;DHT22;44806;48.008;13.666;2022-07-29T14:57:10;34.30;51.50
59025;DHT22;44806;48.008;13.666;2022-07-29T14:59:37;34.90;52.00
59025;DHT22;44806;48.008;13.666;2022-07-29T15:02:05;35.10;51.10
59025;DHT22;44806;48.008;13.666;2022-07-29T15:04:32;35.30;50.40
59025;DHT22;44806;48.008;13.666;2022-07-29T15:06:59;36.00;50.70
59025;DHT22;44806;48.008;13.666;2022-07-29T15:09:27;35.90;47.50
59025;DHT22;44806;48.008;13.666;2022-07-29T15:11:54;35.80;47.00
59025;DHT22;44806;48.008;13.666;2022-07-29T15:14:22;35.40;49.30
59025;DHT22;44806;48.008;13.666;2022-07-29T15:16:49;35.60;47.70
59025;DHT22;44806;48.008;13.666;2022-07-29T15:19:16;35.50;47.10
59025;DHT22;44806;48.008;13.666;2022-07-29T15:21:43;35.40;47.90
59025;DHT22;44806;48.008;13.666;2022-07-29T15:24:12;35.60;47.20
59025;DHT22;44806;48.008;13.666;2022-07-29T15:26:40;35.40;46.90
59025;DHT22;44806;48.008;13.666;2022-07-29T15:29:08;35.50;47.50
59025;DHT22;44806;48.008;13.666;2022-07-29T15:31:35;35.40;47.70
59025;DHT22;44806;48.008;13.666;2022-07-29T15:34:02;35.30;49.20
59025;DHT22;44806;48.008;13.666;2022-07-29T15:36:29;35.80;47.30
59025;DHT22;44806;48.008;13.666;2022-07-29T15:38:57;35.40;46.90